sensor_id;sensor_type;location;lat;lon;timestamp;P1;durP1;ratioP1;P2;durP2;ratioP2
1220;SDS011;600;48.044;7.878;2023-02-12T17:24:35;14.87;;;13.17;;
1220;SDS011;600;48.044;7.878;2023-02-12T17:27:02;13.57;;;11.80;;
1220;SDS011;600;48.044;7.878;2023-02-12T17:29:29;16.43;;;13.97;;
1220;SDS011;600;48.044;7.878;2023-02-12T17:31:56;17.00;;;15.20;;
1220;SDS011;600;48.044;7.878;2023-02-12T17:34:23;15.70;;;12.43;;
1220;SDS011;600;48.044;7.878;2023-02-12T17:36:50;15.30;;;13.80;;
1220;SDS011;600;48.044;7.878;2023-02-12T17:39:17;15.20;;;13.60;;
1220;SDS011;600;48.044;7.878;2023-02-12T17:41:46;13.60;;;12.30;;
1220;SDS011;600;48.044;7.878;2023-02-12T17:44:13;15.45;;;12.98;;
1220;SDS011;600;48.044;7.878;2023-02-12T17:46:40;14.35;;;12.98;;
1220;SDS011;600;48.044;7.878;2023-02-12T17:49:07;16.23;;;13.98;;
1220;SDS011;600;48.044;7.878;2023-02-12T17:51:34;14.63;;;13.20;;
1220;SDS011;600;48.044;7.878;2023-02-12T17:54:01;15.98;;;14.48;;
1220;SDS011;600;48.044;7.878;2023-02-12T17:56:28;17.10;;;15.40;;
1220;SDS011;600;48.044;7.878;2023-02-12T17:58:56;16.27;;;14.55;;
1220;SDS011;600;48.044;7.878;2023-02-12T18:01:23;14.38;;;12.90;;
1220;SDS011;600;48.044;7.878;2023-02-12T18:03:50;14.05;;;12.65;;
1220;SDS011;600;48.044;7.878;2023-02-12T18:06:23;12.85;;;11.63;;
1220;SDS011;600;48.044;7.878;2023-02-12T18:08:51;12.52;;;11.13;;
1220;SDS011;600;48.044;7.878;2023-02-12T18:11:18;12.65;;;11.43;;
1220;SDS011;600;48.044;7.878;2023-02-12T18:13:45;13.13;;;11.38;;
1220;SDS011;600;48.044;7.878;2023-02-12T18:16:13;17.88;;;15.50;;
1220;SDS011;600;48.044;7.878;2023-02-12T18:18:40;17.80;;;15.35;;
1220;SDS011;600;48.044;7.878;2023-02-12T18:21:07;20.80;;;16.45;;
1220;SDS011;600;48.044;7.878;2023-02-12T18:23:35;18.05;;;16.00;;
1220;SDS011;600;48.044;7.878;2023-02-12T18:26:05;17.55;;;15.45;;
1220;SDS011;600;48.044;7.878;2023-02-12T18:28:33;15.50;;;13.80;;
1220;SDS011;600;48.044;7.878;2023-02-12T18:31:00;16.80;;;14.98;;
1220;SDS011;600;48.044;7.878;2023-02-12T18:33:29;15.95;;;14.25;;
1220;SDS011;600;48.044;7.878;2023-02-12T18:35:56;17.05;;;15.30;;
1220;SDS011;600;48.044;7.878;2023-02-12T18:38:24;19.00;;;17.00;;
1220;SDS011;600;48.044;7.878;2023-02-12T18:40:51;18.35;;;16.20;;
1220;SDS011;600;48.044;7.878;2023-02-12T18:43:18;21.15;;;16.48;;
1220;SDS011;600;48.044;7.878;2023-02-12T18:45:45;18.42;;;16.35;;
1220;SDS011;600;48.044;7.878;2023-02-12T18:48:12;19.02;;;16.23;;
1220;SDS011;600;48.044;7.878;2023-02-12T18:50:40;16.48;;;14.57;;
1220;SDS011;600;48.044;7.878;2023-02-12T18:53:07;20.30;;;16.98;;
1220;SDS011;600;48.044;7.878;2023-02-12T18:55:35;20.77;;;18.10;;
1220;SDS011;600;48.044;7.878;2023-02-12T18:58:02;21.50;;;18.60;;
1220;SDS011;600;48.044;7.878;2023-02-12T19:00:29;22.52;;;18.63;;
1220;SDS011;600;48.044;7.878;2023-02-12T19:02:56;19.13;;;16.98;;
1220;SDS011;600;48.044;7.878;2023-02-12T19:05:23;17.80;;;15.93;;
1220;SDS011;600;48.044;7.878;2023-02-12T19:07:52;18.38;;;15.63;;
1220;SDS011;600;48.044;7.878;2023-02-12T19:10:19;14.77;;;13.15;;
1220;SDS011;600;48.044;7.878;2023-02-12T19:12:47;17.20;;;14.45;;
1220;SDS011;600;48.044;7.878;2023-02-12T19:15:13;16.15;;;13.57;;
1220;SDS011;600;48.044;7.878;2023-02-12T19:17:41;16.73;;;14.30;;
